Time;durP1;ratioP1;P1;durP2;ratioP2;P2;SDS_P1;SDS_P2;PMS_P1;PMS_P2;Temp;Humidity;BMP_temperature;BMP_pressure;BME280_temperature;BME280_humidity;BME280_pressure;Samples;Min_cycle;Max_cycle;Signal;HPM_P1;HPM_P2
2021/03/27 00:01:37;;;;;;;21.95;13.27;;;10.80;98.30;;;;;;5036964;28;20480;-82
2021/03/27 00:04:27;;;;;;;27.58;14.68;;;10.80;98.40;;;;;;5054700;28;20101;-81
2021/03/27 00:07:00;;;;;;;23.05;13.05;;;10.90;98.60;;;;;;5054639;28;20075;-81
2021/03/27 00:09:33;;;;;;;22.83;13.02;;;10.80;98.80;;;;;;5054425;28;20029;-81
2021/03/27 00:12:17;;;;;;;20.80;12.95;;;10.80;99.10;;;;;;5054206;28;20037;-81
2021/03/27 00:14:56;;;;;;;22.90;12.57;;;10.80;99.40;;;;;;5054600;28;20029;-82
2021/03/27 00:17:58;;;;;;;18.75;11.50;;;10.80;99.80;;;;;;5019979;28;20037;-81
2021/03/27 00:20:35;;;;;;;20.38;11.65;;;10.70;99.90;;;;;;5054355;28;20037;-81
2021/03/27 00:23:16;;;;;;;20.15;11.30;;;10.80;99.90;;;;;;5051643;28;20025;-81
2021/03/27 00:25:50;;;;;;;18.85;11.13;;;10.80;99.90;;;;;;5053584;28;20091;-81
2021/03/27 00:28:45;;;;;;;19.88;11.82;;;10.80;99.90;;;;;;5035934;28;20376;-82
2021/03/27 00:31:21;;;;;;;17.48;10.88;;;10.70;99.90;;;;;;5034216;28;20045;-79
2021/03/27 00:34:05;;;;;;;18.00;10.65;;;10.70;99.90;;;;;;5036521;28;20033;-79
2021/03/27 00:36:42;;;;;;;17.17;10.57;;;10.70;99.90;;;;;;5053910;28;20061;-79
2021/03/27 00:39:22;;;;;;;22.65;12.65;;;10.70;99.90;;;;;;5034043;28;20519;-79
2021/03/27 00:42:02;;;;;;;25.73;13.65;;;10.70;99.90;;;;;;5033897;28;20615;-79
2021/03/27 00:44:37;;;;;;;21.15;12.93;;;10.50;99.90;;;;;;5033887;28;20080;-79
2021/03/27 00:47:04;;;;;;;22.60;13.52;;;10.50;99.90;;;;;;5034469;28;20053;-80
2021/03/27 00:49:58;;;;;;;23.00;13.30;;;10.40;99.90;;;;;;5019391;28;20039;-80
2021/03/27 00:52:25;;;;;;;;;;;10.40;99.90;;;;;;5054371;28;20025;-80
2021/03/27 00:55:03;;;;;;;22.10;12.60;;;10.40;99.90;;;;;;5049983;28;19897;-80
2021/03/27 00:57:35;;;;;;;23.75;14.02;;;10.40;99.90;;;;;;5036474;28;20029;-79
2021/03/27 01:00:27;;;;;;;21.67;13.25;;;10.40;99.90;;;;;;5035690;28;20029;-81
2021/03/27 01:03:29;;;;;;;23.38;13.82;;;10.40;99.90;;;;;;5002612;28;20029;-80
2021/03/27 01:06:36;;;;;;;22.02;13.15;;;10.40;99.90;;;;;;5052810;28;20464;-80
2021/03/27 01:09:42;;;;;;;24.00;12.23;;;10.20;99.90;;;;;;5053110;28;20086;-80
2021/03/27 01:12:31;;;;;;;21.17;11.68;;;10.30;99.90;;;;;;5052533;28;20178;-80
2021/03/27 01:15:12;;;;;;;23.30;11.98;;;10.30;99.90;;;;;;5037817;28;20679;-80
2021/03/27 01:17:43;;;;;;;22.15;12.95;;;10.20;99.90;;;;;;5035222;28;20048;-80
2021/03/27 01:20:22;;;;;;;24.02;12.70;;;10.20;99.90;;;;;;5035262;28;20025;-80
2021/03/27 01:22:49;;;;;;;23.50;12.63;;;10.20;99.90;;;;;;5053377;28;20028;-80
2021/03/27 01:25:29;;;;;;;23.52;12.95;;;10.20;99.90;;;;;;5035380;28;20040;-80
2021/03/27 01:28:33;;;;;;;23.83;11.93;;;10.20;99.90;;;;;;5053083;28;20017;-80
2021/03/27 01:31:26;;;;;;;26.83;12.95;;;10.20;99.90;;;;;;5046967;28;20047;-80
2021/03/27 01:34:03;;;;;;;19.43;11.53;;;10.20;99.90;;;;;;5052889;28;20056;-80
2021/03/27 01:36:54;;;;;;;22.63;12.63;;;10.10;99.90;;;;;;5052905;28;20266;-80
2021/03/27 01:39:34;;;;;;;23.20;12.77;;;10.10;99.90;;;;;;5034254;28;20037;-80
2021/03/27 01:42:00;;;;;;;17.95;11.18;;;10.10;99.90;;;;;;5034902;28;20029;-80
2021/03/27 01:44:40;;;;;;;24.80;12.05;;;10.10;99.90;;;;;;5052865;28;20040;-80
2021/03/27 01:47:19;;;;;;;23.42;10.93;;;10.10;99.90;;;;;;5052456;28;20056;-80
2021/03/27 01:50:02;;;;;;;21.35;11.40;;;10.20;99.90;;;;;;5052663;28;20032;-80
2021/03/27 01:52:28;;;;;;;23.50;12.00;;;10.20;99.90;;;;;;5034913;28;20029;-80
2021/03/27 01:55:21;;;;;;;33.10;11.67;;;10.10;99.90;;;;;;5052721;28;20139;-80
2021/03/27 01:57:47;;;;;;;21.33;11.30;;;10.10;99.90;;;;;;5052448;28;20319;-80
2021/03/27 02:00:28;;;;;;;19.30;10.82;;;10.10;99.90;;;;;;5034689;28;20069;-80
2021/03/27 02:03:12;;;;;;;21.30;10.45;;;10.10;99.90;;;;;;5052545;28;20383;-80
2021/03/27 02:05:40;;;;;;;16.65;10.20;;;10.10;99.90;;;;;;5052801;28;20526;-80
2021/03/27 02:08:22;;;;;;;20.08;11.07;;;10.10;99.90;;;;;;5068717;28;20510;-81
2021/03/27 02:11:03;;;;;;;17.70;10.10;;;10.10;99.90;;;;;;5052516;28;20043;-80
2021/03/27 02:13:44;;;;;;;17.60;9.13;;;10.10;99.90;;;;;;5051461;28;20045;-80
2021/03/27 02:16:30;;;;;;;19.98;10.20;;;10.10;99.90;;;;;;5052209;28;20025;-80
2021/03/27 02:19:10;;;;;;;17.55;9.73;;;10.10;99.90;;;;;;5050644;28;20048;-79
2021/03/27 02:21:36;;;;;;;21.73;10.32;;;10.00;99.90;;;;;;5051319;28;20028;-80
2021/03/27 02:24:16;;;;;;;15.65;9.82;;;10.00;99.90;;;;;;5052331;28;20037;-80
2021/03/27 02:26:52;;;;;;;19.50;9.70;;;10.00;99.90;;;;;;5052183;28;20029;-80
2021/03/27 02:29:48;;;;;;;19.70;10.00;;;10.00;99.90;;;;;;5034650;28;20056;-80
2021/03/27 02:32:38;;;;;;;20.85;10.85;;;10.00;99.90;;;;;;5052308;28;20025;-79
2021/03/27 02:35:29;;;;;;;17.55;9.98;;;10.00;99.90;;;;;;5034415;28;20021;-80
2021/03/27 02:38:36;;;;;;;18.65;9.27;;;10.10;99.90;;;;;;5051615;28;20561;-80
2021/03/27 02:41:25;;;;;;;16.55;8.75;;;10.00;99.90;;;;;;5003422;28;20499;-80
2021/03/27 02:44:20;;;;;;;17.83;10.07;;;10.00;99.90;;;;;;5032314;28;20029;-79
2021/03/27 02:46:49;;;;;;;16.23;8.98;;;10.00;99.90;;;;;;5025925;28;20563;-80
2021/03/27 02:49:45;;;;;;;16.77;8.18;;;10.00;99.90;;;;;;5034062;28;20033;-80
2021/03/27 02:52:34;;;;;;;20.80;8.68;;;10.00;99.90;;;;;;5051927;28;20032;-80
2021/03/27 02:55:45;;;;;;;17.63;8.98;;;10.00;99.90;;;;;;5052094;28;20057;-79
2021/03/27 02:58:27;;;;;;;16.70;10.02;;;10.00;99.90;;;;;;5051549;28;20033;-80
2021/03/27 03:00:55;;;;;;;20.58;7.97;;;10.00;99.90;;;;;;5052011;28;20501;-80
2021/03/27 03:03:30;;;;;;;14.65;7.57;;;10.00;99.90;;;;;;5051853;28;20052;-80
2021/03/27 03:06:23;;;;;;;14.65;7.93;;;10.00;99.90;;;;;;5051887;28;20086;-80
2021/03/27 03:09:36;;;;;;;13.80;7.60;;;10.00;99.90;;;;;;5025729;28;20045;-79
2021/03/27 03:12:29;;;;;;;16.30;8.38;;;10.00;99.90;;;;;;5015105;28;20036;-79
2021/03/27 03:14:55;;;;;;;;;;;10.10;99.90;;;;;;5051812;28;20029;-80
2021/03/27 03:17:35;;;;;;;12.60;7.47;;;10.00;99.90;;;;;;5033983;28;19916;-78
2021/03/27 03:20:32;;;;;;;15.30;7.45;;;10.00;99.90;;;;;;5040998;28;20299;-80
2021/03/27 03:23:19;;;;;;;13.85;7.95;;;10.10;99.90;;;;;;5054041;28;20098;-80
2021/03/27 03:26:16;;;;;;;13.40;7.28;;;10.00;99.90;;;;;;5051823;28;20120;-80
2021/03/27 03:28:51;;;;;;;20.55;7.53;;;10.00;99.90;;;;;;5051581;28;20044;-81
2021/03/27 03:31:37;;;;;;;13.75;7.65;;;10.00;99.90;;;;;;5051742;28;20483;-79
2021/03/27 03:34:20;;;;;;;10.82;6.32;;;10.00;99.90;;;;;;5053071;28;20117;-80
2021/03/27 03:36:49;;;;;;;9.45;6.70;;;10.00;99.90;;;;;;5055520;28;20540;-80
2021/03/27 03:39:28;;;;;;;9.95;6.32;;;10.00;99.90;;;;;;5054785;28;20539;-80
2021/03/27 03:42:33;;;;;;;13.70;7.28;;;9.90;99.90;;;;;;5054887;28;20426;-79
2021/03/27 03:45:14;;;;;;;11.52;6.57;;;9.90;99.90;;;;;;4974145;28;20038;-80
2021/03/27 03:48:03;;;;;;;17.15;7.57;;;9.90;99.90;;;;;;5046980;28;20128;-80
2021/03/27 03:50:37;;;;;;;12.80;7.90;;;9.90;99.90;;;;;;5054706;28;20499;-80
2021/03/27 03:53:12;;;;;;;10.35;6.93;;;9.90;99.90;;;;;;5055019;28;20486;-80
2021/03/27 03:56:00;;;;;;;11.73;7.28;;;9.90;99.90;;;;;;5054939;28;20486;-80
2021/03/27 03:58:42;;;;;;;12.57;6.88;;;9.90;99.90;;;;;;5054781;28;20045;-80
2021/03/27 04:01:27;;;;;;;12.25;6.72;;;9.90;99.90;;;;;;5020205;28;20122;-80
2021/03/27 04:04:03;;;;;;;12.30;7.05;;;9.90;99.90;;;;;;5054933;28;20044;-80
2021/03/27 04:06:32;;;;;;;11.77;6.18;;;10.00;99.90;;;;;;5054787;28;20021;-80
2021/03/27 04:09:24;;;;;;;12.60;6.60;;;10.00;99.90;;;;;;5054722;28;20033;-80
2021/03/27 04:11:56;;;;;;;12.65;6.40;;;10.00;99.90;;;;;;5035658;28;20021;-80
2021/03/27 04:15:00;;;;;;;10.65;6.03;;;10.00;99.90;;;;;;5054504;28;20036;-80
2021/03/27 04:17:50;;;;;;;10.85;6.55;;;10.00;99.90;;;;;;5032032;28;20033;-80
2021/03/27 04:20:57;;;;;;;11.68;5.97;;;10.00;99.90;;;;;;5036316;28;20035;-80
2021/03/27 04:23:26;;;;;;;12.73;6.43;;;10.00;99.90;;;;;;5009864;28;20037;-80
2021/03/27 04:26:10;;;;;;;11.75;6.18;;;10.00;99.90;;;;;;5054339;28;20040;-80
2021/03/27 04:28:36;;;;;;;;;;;10.00;99.90;;;;;;5054814;28;20047;-80
2021/03/27 04:31:09;;;;;;;9.20;5.50;;;10.00;99.90;;;;;;5035857;28;20375;-80
2021/03/27 04:33:38;;;;;;;10.65;5.90;;;10.00;99.90;;;;;;5045292;28;20033;-81
2021/03/27 04:36:50;;;;;;;11.23;6.10;;;9.90;99.90;;;;;;5058033;28;20036;-81
2021/03/27 04:39:30;;;;;;;10.38;5.53;;;9.90;99.90;;;;;;5030519;28;20041;-80
2021/03/27 04:41:59;;;;;;;11.45;6.55;;;9.90;99.90;;;;;;5053551;28;20025;-80
2021/03/27 04:44:28;;;;;;;12.35;7.18;;;9.90;99.90;;;;;;5053217;28;20025;-80
2021/03/27 04:47:10;;;;;;;9.85;6.03;;;9.90;99.90;;;;;;5053853;28;20467;-81
2021/03/27 04:49:58;;;;;;;12.00;6.32;;;10.00;99.90;;;;;;5053753;28;20029;-81
2021/03/27 04:52:51;;;;;;;15.63;6.88;;;10.00;99.90;;;;;;5053431;28;20111;-80
2021/03/27 04:56:03;;;;;;;10.63;6.82;;;10.00;99.90;;;;;;5053627;28;20021;-80
2021/03/27 04:58:42;;;;;;;12.88;6.68;;;9.90;99.90;;;;;;5035429;28;20084;-80
2021/03/27 05:01:41;;;;;;;11.48;6.22;;;10.00;99.90;;;;;;5035664;28;20055;-80
2021/03/27 05:04:17;;;;;;;9.70;5.38;;;10.00;99.90;;;;;;5009769;28;20077;-80
2021/03/27 05:07:04;;;;;;;9.88;6.05;;;10.00;99.90;;;;;;5053481;28;20037;-81
2021/03/27 05:09:48;;;;;;;10.23;6.07;;;10.00;99.90;;;;;;5035170;28;20037;-81
2021/03/27 05:12:37;;;;;;;10.65;5.80;;;10.10;99.90;;;;;;5035217;28;20090;-80
2021/03/27 05:15:10;;;;;;;8.93;4.68;;;10.10;99.90;;;;;;5045151;28;20041;-80
2021/03/27 05:17:44;;;;;;;10.57;5.07;;;10.10;99.90;;;;;;5047940;28;20025;-80
2021/03/27 05:20:22;;;;;;;12.80;5.65;;;10.20;99.90;;;;;;5052622;28;20044;-80
2021/03/27 05:23:07;;;;;;;10.88;5.47;;;10.20;99.90;;;;;;5035238;28;20025;-80
2021/03/27 05:25:52;;;;;;;10.48;5.70;;;10.30;99.90;;;;;;5032542;28;20032;-80
2021/03/27 05:28:27;;;;;;;6.35;5.00;;;10.20;99.90;;;;;;5043562;28;20040;-80
2021/03/27 05:31:14;;;;;;;9.73;6.43;;;10.30;99.90;;;;;;5033551;28;20032;-81
2021/03/27 05:33:49;;;;;;;11.43;6.45;;;10.30;99.90;;;;;;5045831;28;20025;-81
2021/03/27 05:36:33;;;;;;;11.48;6.43;;;10.40;99.90;;;;;;5032590;28;20029;-82
2021/03/27 05:39:27;;;;;;;8.70;5.57;;;10.40;99.90;;;;;;5042846;28;20036;-80
2021/03/27 05:42:14;;;;;;;12.07;6.35;;;10.50;99.90;;;;;;5043107;28;20048;-81
2021/03/27 05:44:50;;;;;;;10.52;5.85;;;10.50;99.90;;;;;;5041522;28;20028;-81
2021/03/27 05:47:55;;;;;;;11.13;5.53;;;10.60;99.90;;;;;;5048589;28;20089;-81
2021/03/27 05:50:40;;;;;;;11.38;5.97;;;10.70;99.90;;;;;;5047830;28;20077;-80
2021/03/27 05:53:30;;;;;;;14.68;6.07;;;10.70;99.90;;;;;;5017543;28;20190;-80
2021/03/27 05:56:33;;;;;;;10.82;6.35;;;10.80;99.90;;;;;;5032461;28;20072;-80
2021/03/27 05:59:05;;;;;;;8.60;5.13;;;10.80;99.90;;;;;;5040003;28;20098;-81
2021/03/27 06:01:39;;;;;;;9.15;5.78;;;11.00;99.90;;;;;;5022388;28;20115;-79
2021/03/27 06:04:32;;;;;;;10.32;5.45;;;11.00;99.90;;;;;;5052180;28;20041;-79
2021/03/27 06:07:13;;;;;;;10.63;4.72;;;11.10;99.90;;;;;;5034155;28;20044;-79
2021/03/27 06:09:48;;;;;;;11.88;6.10;;;11.10;99.90;;;;;;5041935;28;20022;-80
2021/03/27 06:12:53;;;;;;;9.38;5.07;;;11.20;99.90;;;;;;5042440;28;20041;-80
2021/03/27 06:15:36;;;;;;;9.27;4.95;;;11.30;99.90;;;;;;5009366;28;20061;-79
2021/03/27 06:18:31;;;;;;;9.88;6.03;;;11.40;99.90;;;;;;5040005;28;20179;-80
2021/03/27 06:21:06;;;;;;;12.70;5.30;;;11.40;99.90;;;;;;5032114;28;20087;-78
2021/03/27 06:24:14;;;;;;;7.43;5.15;;;11.50;99.90;;;;;;5033477;28;20360;-79
2021/03/27 06:27:04;;;;;;;12.07;5.80;;;11.60;99.90;;;;;;5001266;28;20483;-80
2021/03/27 06:29:48;;;;;;;10.25;5.30;;;11.60;99.90;;;;;;5051854;28;20506;-78
2021/03/27 06:32:45;;;;;;;10.60;5.53;;;11.60;99.90;;;;;;5051527;28;20099;-80
2021/03/27 06:35:26;;;;;;;8.02;4.70;;;11.70;99.90;;;;;;5051197;28;20028;-81
2021/03/27 06:38:29;;;;;;;10.40;5.90;;;11.80;99.90;;;;;;5051728;28;20037;-81
2021/03/27 06:41:19;;;;;;;9.15;5.25;;;11.90;99.90;;;;;;5032558;28;20044;-80
2021/03/27 06:44:00;;;;;;;10.55;5.18;;;12.00;99.90;;;;;;5044445;28;20053;-80
2021/03/27 06:46:38;;;;;;;10.88;5.50;;;12.00;99.90;;;;;;5045946;28;20053;-81
2021/03/27 06:49:35;;;;;;;8.55;5.10;;;12.10;99.90;;;;;;5014536;28;20036;-81
2021/03/27 06:52:31;;;;;;;6.20;4.80;;;12.20;99.90;;;;;;5032066;28;20025;-80
2021/03/27 06:55:18;;;;;;;6.88;4.60;;;12.20;99.90;;;;;;5050156;28;20118;-81
2021/03/27 06:58:03;;;;;;;7.82;5.25;;;12.30;99.90;;;;;;5051918;28;20064;-81
2021/03/27 07:00:45;;;;;;;12.32;5.70;;;12.40;99.90;;;;;;5070151;28;20053;-81
2021/03/27 07:03:38;;;;;;;10.45;5.47;;;12.50;99.90;;;;;;5044305;28;20087;-81
2021/03/27 07:06:23;;;;;;;;;;;12.60;99.90;;;;;;5043859;28;20040;-80
2021/03/27 07:08:49;;;;;;;6.28;3.88;;;12.70;99.90;;;;;;5048103;28;19909;-82
2021/03/27 07:11:20;;;;;;;7.13;4.83;;;12.80;99.90;;;;;;5042765;28;20124;-82
2021/03/27 07:14:23;;;;;;;6.28;3.47;;;12.80;99.90;;;;;;5048172;28;20291;-81
2021/03/27 07:17:04;;;;;;;13.75;4.80;;;12.90;99.90;;;;;;5051165;28;20364;-81
2021/03/27 07:19:48;;;;;;;9.15;3.60;;;12.90;99.90;;;;;;5060461;28;20037;-81
2021/03/27 07:22:24;;;;;;;4.97;3.05;;;13.00;99.90;;;;;;5034577;28;20048;-80
2021/03/27 07:24:53;;;;;;;5.05;3.42;;;13.00;99.90;;;;;;5047866;28;20056;-81
2021/03/27 07:27:52;;;;;;;7.32;3.47;;;13.00;99.90;;;;;;5026191;28;20088;-79
2021/03/27 07:30:32;;;;;;;8.07;3.72;;;13.10;99.90;;;;;;5010507;28;20040;-81
2021/03/27 07:33:22;;;;;;;9.70;4.10;;;13.20;99.90;;;;;;5028341;28;20394;-81
2021/03/27 07:36:22;;;;;;;7.50;3.50;;;13.20;99.90;;;;;;5041998;28;20017;-81
2021/03/27 07:39:26;;;;;;;5.43;3.42;;;13.40;99.90;;;;;;5034764;28;20076;-79
2021/03/27 07:42:05;;;;;;;;;;;13.50;99.90;;;;;;5019375;28;20121;-81
2021/03/27 07:45:02;;;;;;;8.60;4.40;;;13.60;99.90;;;;;;5049833;28;19917;-82
2021/03/27 07:47:54;;;;;;;5.75;3.83;;;13.70;99.90;;;;;;5049641;28;20024;-80
2021/03/27 07:50:57;;;;;;;6.05;4.00;;;13.80;99.90;;;;;;5052013;28;20514;-81
2021/03/27 07:53:57;;;;;;;7.63;4.13;;;13.90;99.90;;;;;;5048080;28;20059;-81
2021/03/27 07:56:50;;;;;;;7.68;3.80;;;13.90;99.90;;;;;;5045803;28;20029;-82
2021/03/27 07:59:54;;;;;;;5.32;3.17;;;14.00;99.90;;;;;;5036673;28;20037;-82
2021/03/27 08:02:41;;;;;;;4.93;2.83;;;14.10;99.90;;;;;;5052955;28;20021;-80
2021/03/27 08:05:50;;;;;;;6.45;3.35;;;14.10;99.90;;;;;;5004181;28;20034;-80
2021/03/27 08:08:54;;;;;;;15.85;3.80;;;14.30;99.90;;;;;;5027711;28;20064;-77
2021/03/27 08:12:00;;;;;;;5.22;3.33;;;14.30;99.90;;;;;;5036985;28;20088;-77
2021/03/27 08:15:04;;;;;;;12.48;4.25;;;14.40;99.90;;;;;;5019939;28;20034;-79
2021/03/27 08:17:44;;;;;;;6.25;3.47;;;14.50;99.90;;;;;;4953240;28;20035;-78
2021/03/27 08:20:28;;;;;;;6.70;3.58;;;14.60;99.90;;;;;;4958059;28;20038;-76
2021/03/27 08:22:59;;;;;;;7.53;3.03;;;14.50;99.90;;;;;;4997778;28;20093;-77
2021/03/27 08:25:46;;;;;;;7.10;4.03;;;14.60;99.90;;;;;;5011391;28;20030;-79
2021/03/27 08:28:37;;;;;;;6.28;3.60;;;14.70;99.90;;;;;;5013995;28;20538;-77
2021/03/27 08:31:28;;;;;;;7.93;3.33;;;14.90;99.90;;;;;;5010489;28;20022;-76
2021/03/27 08:34:08;;;;;;;6.53;3.15;;;15.10;99.90;;;;;;5007540;28;20032;-78
2021/03/27 08:36:52;;;;;;;5.03;2.88;;;15.30;99.90;;;;;;5013672;28;20068;-76
2021/03/27 08:39:34;;;;;;;;;;;15.50;99.90;;;;;;5008701;28;20089;-76
2021/03/27 08:42:18;;;;;;;9.48;3.45;;;15.70;99.90;;;;;;5009324;28;20344;-77
2021/03/27 08:45:05;;;;;;;4.78;3.38;;;15.70;99.90;;;;;;5014078;28;20022;-76
2021/03/27 08:47:56;;;;;;;5.82;3.00;;;15.80;99.90;;;;;;5013782;28;20113;-76
2021/03/27 08:50:40;;;;;;;5.68;3.10;;;15.80;99.90;;;;;;5014019;28;20109;-78
2021/03/27 08:53:37;;;;;;;5.88;3.08;;;15.60;99.90;;;;;;5014076;28;20026;-79
2021/03/27 08:56:15;;;;;;;5.95;3.58;;;15.50;99.90;;;;;;5013943;28;20492;-76
2021/03/27 08:58:59;;;;;;;6.18;2.80;;;15.50;99.90;;;;;;5013499;28;20038;-77
2021/03/27 09:01:40;;;;;;;9.50;2.85;;;15.50;99.90;;;;;;5013345;28;20034;-77
2021/03/27 09:04:38;;;;;;;5.28;2.85;;;15.50;99.90;;;;;;5013735;28;20030;-79
2021/03/27 09:07:09;;;;;;;7.28;3.25;;;15.60;99.90;;;;;;5013822;28;20033;-79
2021/03/27 09:10:00;;;;;;;7.18;2.72;;;15.70;99.90;;;;;;5013511;28;20473;-79
2021/03/27 09:12:57;;;;;;;6.00;2.97;;;16.00;99.90;;;;;;5021970;28;20053;-79
2021/03/27 09:16:00;;;;;;;5.68;2.63;;;16.10;99.90;;;;;;5053178;28;20511;-79
2021/03/27 09:18:54;;;;;;;4.85;2.70;;;16.30;99.90;;;;;;5051095;28;20390;-80
2021/03/27 09:21:44;;;;;;;4.15;2.67;;;16.50;99.90;;;;;;5031935;28;20479;-79
2021/03/27 09:24:32;;;;;;;5.10;2.63;;;16.60;99.90;;;;;;5015419;28;20495;-77
2021/03/27 09:27:25;;;;;;;3.30;2.38;;;16.70;99.90;;;;;;5039094;28;20164;-78
2021/03/27 09:30:11;;;;;;;6.68;2.63;;;16.80;99.90;;;;;;5038993;28;20017;-77
2021/03/27 09:32:40;;;;;;;5.22;3.22;;;16.80;99.90;;;;;;5052054;28;20029;-76
2021/03/27 09:35:11;;;;;;;5.40;3.20;;;16.90;99.90;;;;;;5052944;28;20108;-79
2021/03/27 09:37:46;;;;;;;5.43;2.53;;;17.00;99.90;;;;;;5052697;28;20029;-76
2021/03/27 09:40:19;;;;;;;5.30;3.05;;;17.20;99.90;;;;;;5052499;28;20033;-77
2021/03/27 09:42:54;;;;;;;4.70;2.75;;;17.30;99.90;;;;;;5052066;28;20025;-78
2021/03/27 09:45:20;;;;;;;5.07;2.53;;;17.40;99.90;;;;;;5052725;28;20391;-78
2021/03/27 09:47:55;;;;;;;7.45;2.95;;;17.50;99.80;;;;;;5049950;28;20032;-80
2021/03/27 09:50:33;;;;;;;6.68;3.97;;;17.70;98.90;;;;;;5051444;28;20087;-77
2021/03/27 09:53:04;;;;;;;4.65;2.97;;;17.80;99.10;;;;;;5039627;28;20444;-76
2021/03/27 09:55:37;;;;;;;9.90;3.20;;;18.00;99.50;;;;;;5045016;28;20037;-78
2021/03/27 09:58:03;;;;;;;7.05;3.35;;;18.20;98.30;;;;;;5046670;28;20037;-76
2021/03/27 10:00:47;;;;;;;7.57;3.33;;;18.30;97.90;;;;;;5045433;28;20107;-76
2021/03/27 10:03:13;;;;;;;3.75;2.65;;;18.50;97.80;;;;;;5052661;28;20021;-74
2021/03/27 10:05:51;;;;;;;5.83;2.73;;;18.50;97.80;;;;;;5050565;28;20079;-75
2021/03/27 10:08:19;;;;;;;4.93;2.67;;;18.30;98.10;;;;;;5027798;28;20447;-75
2021/03/27 10:10:54;;;;;;;5.53;2.92;;;18.40;97.90;;;;;;5017487;28;20033;-79
2021/03/27 10:13:39;;;;;;;4.25;2.72;;;18.30;98.10;;;;;;5046050;28;20107;-79
2021/03/27 10:16:19;;;;;;;5.28;2.55;;;18.20;97.80;;;;;;5032127;28;20029;-78
2021/03/27 10:18:51;;;;;;;4.10;2.50;;;18.50;98.60;;;;;;5040062;28;20039;-76
2021/03/27 10:21:36;;;;;;;7.93;2.55;;;18.60;97.70;;;;;;5049105;28;20475;-79
2021/03/27 10:24:13;;;;;;;5.18;2.92;;;18.80;96.80;;;;;;5049271;28;20111;-75
2021/03/27 10:26:58;;;;;;;3.53;2.35;;;18.90;96.60;;;;;;5033082;28;20029;-76
2021/03/27 10:29:38;;;;;;;4.97;3.03;;;19.10;98.30;;;;;;5051377;28;20025;-76
2021/03/27 10:32:31;;;;;;;13.13;3.45;;;19.10;97.10;;;;;;5051662;28;20089;-76
2021/03/27 10:35:30;;;;;;;3.42;2.80;;;18.90;96.60;;;;;;5051867;28;20056;-76
2021/03/27 10:38:35;;;;;;;5.30;2.55;;;18.80;97.90;;;;;;5065541;28;20024;-76
2021/03/27 10:41:13;;;;;;;3.00;2.10;;;18.60;99.90;;;;;;5074116;28;20064;-77
2021/03/27 10:44:10;;;;;;;4.03;2.72;;;18.30;99.80;;;;;;5059931;28;20442;-76
2021/03/27 10:46:51;;;;;;;4.53;2.70;;;18.50;99.90;;;;;;5055909;28;20033;-76
2021/03/27 10:49:47;;;;;;;5.68;2.50;;;18.40;99.90;;;;;;5055793;28;20126;-78
2021/03/27 10:52:24;;;;;;;5.07;2.67;;;18.40;99.90;;;;;;5044844;28;20041;-78
2021/03/27 10:54:50;;;;;;;4.20;2.75;;;18.90;99.90;;;;;;5049125;28;20410;-76
2021/03/27 10:57:28;;;;;;;4.63;2.70;;;19.20;97.80;;;;;;5048220;28;20030;-80
2021/03/27 11:00:25;;;;;;;4.57;2.55;;;19.60;96.90;;;;;;5053967;28;20120;-80
2021/03/27 11:03:15;;;;;;;4.40;2.47;;;20.20;99.10;;;;;;5052687;28;20545;-78
2021/03/27 11:06:02;;;;;;;4.22;3.42;;;20.00;99.10;;;;;;5050752;28;20020;-80
2021/03/27 11:08:43;;;;;;;4.78;2.53;;;19.80;99.80;;;;;;5045963;28;20025;-80
2021/03/27 11:12:02;;;;;;;5.07;2.63;;;19.50;98.80;;;;;;5040234;28;20136;-79
2021/03/27 11:14:53;;;;;;;3.55;3.00;;;19.10;97.80;;;;;;5024292;28;20048;-80
2021/03/27 11:17:45;;;;;;;7.20;3.78;;;18.90;99.50;;;;;;5053061;28;20074;-80
2021/03/27 11:20:29;;;;;;;3.97;3.03;;;18.80;99.90;;;;;;5031439;28;20448;-81
2021/03/27 11:23:21;;;;;;;4.82;2.63;;;19.30;99.90;;;;;;5054805;28;20427;-79
2021/03/27 11:25:59;;;;;;;5.68;2.55;;;19.70;99.90;;;;;;5054986;28;20029;-80
2021/03/27 11:28:35;;;;;;;4.75;2.22;;;20.20;97.50;;;;;;5054811;28;20029;-80
2021/03/27 11:31:32;;;;;;;5.00;2.55;;;20.60;97.40;;;;;;5055638;28;20514;-89
2021/03/27 11:34:26;;;;;;;7.25;2.78;;;20.30;98.00;;;;;;5055792;28;20104;-84
2021/03/27 11:37:30;;;;;;;5.50;2.70;;;19.80;98.50;;;;;;5056197;28;20021;-87
2021/03/27 11:40:21;;;;;;;4.90;2.42;;;19.90;97.20;;;;;;5056472;28;20036;-82
2021/03/27 11:43:14;;;;;;;9.10;2.55;;;20.00;96.20;;;;;;5055835;28;20029;-84
2021/03/27 11:45:56;;;;;;;3.28;1.85;;;20.00;95.20;;;;;;5056406;28;20079;-84
2021/03/27 11:48:34;;;;;;;10.00;3.10;;;19.90;96.00;;;;;;5056955;28;20025;-83
2021/03/27 11:51:09;;;;;;;3.85;2.90;;;20.10;95.80;;;;;;5064425;28;20079;-77
2021/03/27 11:53:52;;;;;;;5.53;2.70;;;19.90;95.60;;;;;;5061860;28;20037;-82
2021/03/27 11:56:41;;;;;;;6.40;3.10;;;19.70;95.70;;;;;;5037189;28;20102;-84
2021/03/27 12:03:11;;;;;;;7.25;3.25;;;19.90;95.80;;;;;;4955268;29;20118;-80
2021/03/27 12:05:43;;;;;;;8.05;3.53;;;20.50;95.10;;;;;;4970810;28;20432;-82
2021/03/27 12:08:20;;;;;;;3.95;2.85;;;20.80;94.30;;;;;;5034200;28;20060;-84
2021/03/27 12:11:48;;;;;;;3.88;2.67;;;21.10;93.70;;;;;;5054473;28;20025;-84
2021/03/27 12:14:35;;;;;;;4.60;2.92;;;21.40;93.90;;;;;;4996463;28;20495;-79
2021/03/27 12:17:21;;;;;;;4.95;2.90;;;21.90;92.20;;;;;;5026493;28;20028;-80
2021/03/27 12:20:03;;;;;;;7.55;2.67;;;22.00;92.00;;;;;;5033590;28;20036;-77
2021/03/27 12:22:36;;;;;;;6.40;3.00;;;22.10;92.20;;;;;;5042888;28;20550;-77
2021/03/27 12:25:18;;;;;;;;;;;22.20;92.30;;;;;;5043521;28;20063;-80
2021/03/27 12:27:55;;;;;;;4.00;2.70;;;22.20;92.10;;;;;;5047321;28;19912;-81
2021/03/27 12:30:53;;;;;;;6.45;3.08;;;22.40;93.60;;;;;;5046193;28;20468;-81
2021/03/27 12:33:30;;;;;;;7.28;3.13;;;22.30;94.90;;;;;;5042866;28;20033;-82
2021/03/27 12:36:08;;;;;;;4.60;2.67;;;22.40;92.80;;;;;;5051053;28;20467;-81
2021/03/27 12:39:21;;;;;;;4.25;3.10;;;22.10;91.80;;;;;;5055107;28;20044;-87
2021/03/27 12:41:53;;;;;;;4.78;2.20;;;21.70;92.80;;;;;;5042430;28;20028;-76
2021/03/27 12:44:35;;;;;;;8.05;2.30;;;21.70;94.90;;;;;;5054019;28;20028;-83
2021/03/27 12:47:20;;;;;;;5.22;2.28;;;21.80;95.00;;;;;;5052815;28;20017;-80
2021/03/27 12:50:28;;;;;;;5.55;3.00;;;22.10;94.20;;;;;;5054382;28;20029;-75
2021/03/27 12:53:18;;;;;;;3.92;2.13;;;22.00;92.50;;;;;;5001992;28;20199;-79
2021/03/27 12:56:05;;;;;;;8.68;3.20;;;22.00;94.10;;;;;;5046788;28;20033;-81
2021/03/27 12:58:49;;;;;;;5.32;2.72;;;22.10;95.00;;;;;;5051681;28;20071;-80
2021/03/27 13:01:39;;;;;;;4.43;2.50;;;22.20;93.00;;;;;;5054472;28;20112;-86
2021/03/27 13:04:27;;;;;;;5.53;2.15;;;22.20;92.40;;;;;;5061404;28;20041;-78
2021/03/27 13:07:11;;;;;;;6.63;2.60;;;22.20;92.30;;;;;;5054841;28;20036;-79
2021/03/27 13:10:12;;;;;;;5.35;2.60;;;22.30;92.40;;;;;;5016208;28;20387;-82
2021/03/27 13:13:02;;;;;;;5.07;2.45;;;22.60;92.90;;;;;;5046335;28;20053;-79
2021/03/27 13:15:46;;;;;;;4.75;2.50;;;22.60;91.40;;;;;;5032685;28;20045;-77
2021/03/27 13:18:25;;;;;;;4.53;2.38;;;22.40;91.60;;;;;;5050075;28;20057;-77
2021/03/27 13:21:09;;;;;;;4.68;2.38;;;22.20;92.00;;;;;;5053160;28;20050;-80
2021/03/27 13:24:14;;;;;;;4.65;2.40;;;22.00;91.40;;;;;;5053237;28;20056;-76
2021/03/27 13:26:42;;;;;;;7.38;2.40;;;22.00;91.60;;;;;;5050008;28;20044;-82
2021/03/27 13:29:37;;;;;;;6.55;2.55;;;22.10;91.70;;;;;;5053268;28;20037;-75
2021/03/27 13:32:15;;;;;;;3.25;2.42;;;22.20;91.30;;;;;;5053173;28;20025;-78
2021/03/27 13:35:15;;;;;;;6.55;2.55;;;22.20;91.30;;;;;;5055622;28;20155;-88
2021/03/27 13:37:51;;;;;;;4.10;2.20;;;22.40;91.80;;;;;;5050632;28;20029;-80
2021/03/27 13:40:33;;;;;;;5.72;3.08;;;22.70;90.90;;;;;;5054026;28;20391;-77
2021/03/27 13:43:17;;;;;;;7.63;2.47;;;22.80;90.80;;;;;;5052990;28;20052;-76
2021/03/27 13:46:04;;;;;;;3.88;2.22;;;22.60;90.60;;;;;;5052105;28;20029;-76
2021/03/27 13:48:39;;;;;;;7.18;2.55;;;22.00;90.40;;;;;;5052454;28;20029;-74
2021/03/27 13:51:11;;;;;;;3.17;2.20;;;21.90;91.10;;;;;;5050445;28;20048;-73
2021/03/27 13:53:49;;;;;;;4.95;2.40;;;22.30;91.40;;;;;;5034575;28;20029;-73
2021/03/27 13:56:25;;;;;;;4.13;3.03;;;22.50;91.50;;;;;;5052148;28;20029;-72
2021/03/27 13:59:12;;;;;;;7.07;4.00;;;22.60;91.20;;;;;;5051626;28;20033;-72
2021/03/27 14:02:00;;;;;;;3.83;2.90;;;22.80;91.80;;;;;;5051686;28;20028;-73
2021/03/27 14:04:50;;;;;;;6.75;2.97;;;22.90;90.80;;;;;;5051187;28;20017;-72
2021/03/27 14:07:33;;;;;;;2.83;2.20;;;22.70;90.30;;;;;;5051996;28;20036;-74
2021/03/27 14:10:17;;;;;;;3.60;2.40;;;22.60;89.90;;;;;;5051349;28;20036;-74
2021/03/27 14:13:09;;;;;;;7.20;4.57;;;22.00;90.30;;;;;;5052070;28;20318;-74
2021/03/27 14:15:42;;;;;;;23.25;16.33;;;21.50;91.30;;;;;;5055496;28;20048;-74
2021/03/27 14:18:27;;;;;;;33.05;22.83;;;21.20;92.80;;;;;;5028553;28;20434;-83